Time;durP1;ratioP1;P1;durP2;ratioP2;P2;SDS_P1;SDS_P2;PMS_P1;PMS_P2;Temp;Humidity;BMP_temperature;BMP_pressure;BME280_temperature;BME280_humidity;BME280_pressure;Samples;Min_cycle;Max_cycle;Signal;HPM_P1;HPM_P2
2021/05/16 00:02:20;;;;;;;2.78;0.93;;;10.80;99.90;;;;;;4981837;28;20088;-77
2021/05/16 00:04:45;;;;;;;2.20;0.52;;;10.90;99.90;;;;;;4984151;28;20034;-78
2021/05/16 00:07:11;;;;;;;3.03;0.85;;;10.80;99.90;;;;;;4978855;28;20391;-79
2021/05/16 00:09:40;;;;;;;1.77;0.80;;;10.90;99.90;;;;;;4980125;28;20026;-79
2021/05/16 00:12:07;;;;;;;1.98;0.70;;;10.90;99.90;;;;;;4979804;28;20027;-79
2021/05/16 00:14:33;;;;;;;2.30;0.63;;;10.80;99.90;;;;;;4978745;28;20077;-80
2021/05/16 00:16:59;;;;;;;1.38;0.70;;;11.00;99.90;;;;;;4973537;28;20475;-78
2021/05/16 00:19:25;;;;;;;1.50;0.70;;;10.90;99.90;;;;;;4973830;28;20031;-77
2021/05/16 00:21:51;;;;;;;3.83;0.93;;;10.90;99.90;;;;;;4976751;28;20097;-76
2021/05/16 00:24:17;;;;;;;1.60;0.63;;;10.90;99.90;;;;;;4977110;28;20066;-78
2021/05/16 00:26:43;;;;;;;1.45;0.60;;;10.90;99.90;;;;;;4977910;28;20382;-78
2021/05/16 00:29:08;;;;;;;2.83;0.60;;;10.90;99.90;;;;;;4979875;28;20094;-79
2021/05/16 00:31:34;;;;;;;0.52;0.30;;;10.90;99.90;;;;;;4983576;28;20035;-78
2021/05/16 00:34:00;;;;;;;1.67;0.98;;;10.90;99.90;;;;;;4983741;28;20154;-78
2021/05/16 00:36:26;;;;;;;1.70;0.65;;;10.90;99.90;;;;;;4984266;28;20023;-78
2021/05/16 00:38:51;;;;;;;2.63;0.85;;;10.90;99.90;;;;;;4984979;28;20522;-78
2021/05/16 00:41:17;;;;;;;2.20;0.60;;;10.90;99.90;;;;;;4983843;28;20027;-78
2021/05/16 00:43:43;;;;;;;1.98;0.65;;;10.90;99.90;;;;;;4987340;28;20076;-77
2021/05/16 00:46:09;;;;;;;2.03;0.57;;;10.90;99.90;;;;;;4983143;28;20026;-79
2021/05/16 00:48:38;;;;;;;1.92;0.70;;;11.00;99.90;;;;;;4986631;28;20030;-77
2021/05/16 00:51:05;;;;;;;0.80;0.57;;;11.00;99.90;;;;;;4985470;28;20037;-76
2021/05/16 00:53:31;;;;;;;2.10;0.75;;;11.00;99.90;;;;;;4987540;28;20023;-78
2021/05/16 00:55:58;;;;;;;1.10;0.52;;;10.90;99.90;;;;;;4982530;28;20049;-77
2021/05/16 00:58:25;;;;;;;5.97;1.13;;;11.00;99.90;;;;;;4984409;28;20035;-78
2021/05/16 01:00:51;;;;;;;3.13;0.70;;;11.00;99.90;;;;;;4986240;28;20053;-77
2021/05/16 01:03:20;;;;;;;1.75;0.82;;;11.00;99.90;;;;;;4985517;28;20027;-77
2021/05/16 01:05:45;;;;;;;2.70;1.27;;;11.10;99.90;;;;;;5002721;28;20046;-78
2021/05/16 01:08:12;;;;;;;2.15;0.65;;;11.00;99.90;;;;;;4990830;28;20045;-78
2021/05/16 01:10:38;;;;;;;1.65;0.60;;;11.00;99.90;;;;;;4982461;28;20109;-80
2021/05/16 01:13:05;;;;;;;2.75;1.15;;;10.90;99.90;;;;;;4985749;28;20059;-77
2021/05/16 01:15:33;;;;;;;2.42;0.70;;;10.90;99.90;;;;;;4980198;28;20368;-76
2021/05/16 01:17:59;;;;;;;2.78;0.95;;;10.90;99.90;;;;;;4986031;28;20103;-78
2021/05/16 01:20:39;;;;;;;3.33;1.13;;;10.90;99.90;;;;;;4985632;28;20098;-78
2021/05/16 01:23:12;;;;;;;2.28;0.85;;;10.90;99.90;;;;;;4985553;28;20483;-78
2021/05/16 01:25:40;;;;;;;1.38;0.57;;;11.00;99.90;;;;;;4981867;28;20034;-77
2021/05/16 01:28:07;;;;;;;3.15;0.85;;;10.90;99.90;;;;;;4984918;28;20023;-77
2021/05/16 01:30:34;;;;;;;1.25;0.63;;;10.90;99.90;;;;;;4977655;28;20026;-76
2021/05/16 01:33:00;;;;;;;1.83;0.93;;;10.90;99.90;;;;;;4996757;28;20057;-77
2021/05/16 01:35:27;;;;;;;2.30;1.05;;;10.90;99.90;;;;;;4985781;28;20038;-77
2021/05/16 01:37:52;;;;;;;2.92;1.48;;;10.90;99.90;;;;;;4984803;28;20456;-78
2021/05/16 01:40:21;;;;;;;1.50;0.90;;;10.90;99.90;;;;;;4985982;28;20056;-77
2021/05/16 01:42:49;;;;;;;1.23;0.52;;;10.80;99.90;;;;;;4981441;28;20019;-76
2021/05/16 01:45:17;;;;;;;3.47;0.70;;;10.90;99.90;;;;;;4978173;28;20039;-77
2021/05/16 01:47:43;;;;;;;2.00;1.00;;;10.90;99.90;;;;;;4981271;28;20022;-78
2021/05/16 01:50:14;;;;;;;3.40;1.42;;;10.90;99.90;;;;;;4991014;28;20090;-78
2021/05/16 01:52:41;;;;;;;;;;;10.90;99.90;;;;;;4986869;28;20022;-77
2021/05/16 01:55:09;;;;;;;1.77;1.00;;;10.90;99.90;;;;;;4984782;28;19914;-78
2021/05/16 01:57:36;;;;;;;1.75;1.00;;;11.00;99.90;;;;;;4971101;28;20030;-78
2021/05/16 02:00:08;;;;;;;1.83;0.90;;;11.00;99.90;;;;;;4981713;28;20499;-77
2021/05/16 02:02:34;;;;;;;3.70;0.70;;;10.90;99.90;;;;;;4987378;28;20015;-78
2021/05/16 02:04:59;;;;;;;2.35;1.05;;;10.90;99.90;;;;;;4983663;28;20041;-77
2021/05/16 02:07:26;;;;;;;2.55;1.20;;;10.80;99.90;;;;;;4978126;28;20019;-77
2021/05/16 02:09:52;;;;;;;6.25;1.33;;;10.80;99.90;;;;;;4975843;28;20060;-77
2021/05/16 02:12:18;;;;;;;1.27;0.80;;;10.80;99.90;;;;;;4976273;28;20372;-77
2021/05/16 02:14:45;;;;;;;3.83;1.20;;;10.80;99.90;;;;;;4983130;28;20027;-78
2021/05/16 02:17:12;;;;;;;4.05;1.67;;;10.80;99.90;;;;;;4984960;28;20095;-76
2021/05/16 02:19:38;;;;;;;1.98;0.90;;;10.80;99.90;;;;;;4987611;28;20399;-77
2021/05/16 02:22:04;;;;;;;2.58;1.27;;;10.80;99.90;;;;;;4983043;28;20050;-80
2021/05/16 02:24:30;;;;;;;1.15;0.80;;;10.80;99.90;;;;;;4982758;28;20023;-78
2021/05/16 02:26:59;;;;;;;3.60;1.20;;;10.80;1.00;;;;;;4984974;28;20476;-78
2021/05/16 02:29:28;;;;;;;2.75;0.95;;;10.80;1.00;;;;;;4984923;28;20497;-78
2021/05/16 02:31:55;;;;;;;2.92;0.75;;;10.90;99.90;;;;;;4984296;28;20023;-78
2021/05/16 02:34:21;;;;;;;2.13;0.80;;;10.90;99.90;;;;;;4983054;28;20026;-77
2021/05/16 02:36:47;;;;;;;1.90;1.02;;;10.90;1.00;;;;;;4983128;28;20023;-76
2021/05/16 02:39:13;;;;;;;3.33;0.90;;;10.90;99.90;;;;;;4985032;28;20029;-77
2021/05/16 02:41:39;;;;;;;2.47;1.00;;;10.80;1.00;;;;;;4989157;28;20046;-76
2021/05/16 02:44:05;;;;;;;2.63;0.90;;;10.80;1.00;;;;;;4997892;28;20064;-76
2021/05/16 02:46:31;;;;;;;2.90;1.08;;;10.80;1.00;;;;;;4998194;28;20099;-76
2021/05/16 02:48:56;;;;;;;1.02;0.70;;;10.80;1.00;;;;;;4989270;28;20554;-77
2021/05/16 02:51:22;;;;;;;2.80;0.80;;;10.80;1.00;;;;;;4983639;28;20081;-78
2021/05/16 02:53:48;;;;;;;1.58;0.90;;;10.70;1.00;;;;;;4985374;28;20039;-78
2021/05/16 02:56:15;;;;;;;2.20;0.98;;;10.80;1.00;;;;;;4997080;28;20031;-77
2021/05/16 02:58:41;;;;;;;3.70;1.08;;;10.80;1.00;;;;;;4996578;28;20019;-77
2021/05/16 03:01:08;;;;;;;1.48;0.95;;;10.70;1.00;;;;;;4978224;28;20042;-77
2021/05/16 03:03:34;;;;;;;2.70;0.80;;;10.70;1.00;;;;;;4977281;28;20038;-78
2021/05/16 03:06:00;;;;;;;2.95;1.13;;;10.70;1.00;;;;;;4974449;28;20039;-77
2021/05/16 03:08:25;;;;;;;1.67;0.90;;;10.60;1.00;;;;;;4988857;28;20050;-79
2021/05/16 03:10:51;;;;;;;1.80;1.02;;;10.60;1.00;;;;;;4977049;28;20030;-77
2021/05/16 03:13:17;;;;;;;3.45;1.02;;;10.50;1.00;;;;;;4975662;28;20074;-77
2021/05/16 03:15:42;;;;;;;2.00;0.80;;;10.60;1.00;;;;;;4975449;28;20398;-77
2021/05/16 03:18:08;;;;;;;2.83;1.00;;;10.50;1.00;;;;;;4976574;28;20092;-77
2021/05/16 03:20:33;;;;;;;1.52;0.90;;;10.50;1.00;;;;;;4976803;28;20030;-77
2021/05/16 03:22:59;;;;;;;3.10;1.15;;;10.60;1.00;;;;;;4976199;28;20031;-77
2021/05/16 03:25:25;;;;;;;4.72;1.20;;;10.50;1.00;;;;;;4987733;28;20106;-76
2021/05/16 03:27:50;;;;;;;1.90;1.10;;;10.50;1.00;;;;;;5003292;28;20165;-77
2021/05/16 03:30:16;;;;;;;3.75;0.88;;;10.50;1.00;;;;;;4989598;28;20056;-76
2021/05/16 03:32:42;;;;;;;2.63;1.10;;;10.50;1.00;;;;;;4989077;28;20068;-76
2021/05/16 03:35:10;;;;;;;2.15;1.55;;;10.60;1.00;;;;;;4986712;28;20031;-77
2021/05/16 03:37:36;;;;;;;2.22;1.20;;;10.60;1.00;;;;;;4986555;28;20031;-77
2021/05/16 03:40:03;;;;;;;2.83;0.98;;;10.60;1.00;;;;;;4980103;28;20491;-77
2021/05/16 03:42:28;;;;;;;2.13;1.00;;;10.60;1.00;;;;;;4981518;28;20041;-77
2021/05/16 03:44:55;;;;;;;2.33;0.85;;;10.60;1.00;;;;;;4986860;28;20047;-78
2021/05/16 03:47:22;;;;;;;2.17;0.77;;;10.70;1.00;;;;;;4986357;28;20030;-77
2021/05/16 03:49:47;;;;;;;2.42;0.90;;;10.60;1.00;;;;;;4985374;28;20030;-77
2021/05/16 03:52:13;;;;;;;3.33;1.30;;;10.60;1.00;;;;;;4984857;28;20035;-77
2021/05/16 03:54:40;;;;;;;2.22;0.90;;;10.60;1.00;;;;;;4984519;28;20117;-80
2021/05/16 03:57:07;;;;;;;2.70;1.13;;;10.70;1.00;;;;;;4988430;28;20113;-77
2021/05/16 03:59:33;;;;;;;1.35;0.90;;;10.70;1.00;;;;;;4987267;28;20043;-77
2021/05/16 04:01:59;;;;;;;3.75;1.63;;;10.60;1.00;;;;;;4987199;28;20027;-77
2021/05/16 04:04:24;;;;;;;2.63;0.88;;;10.70;1.00;;;;;;4986894;28;20134;-77
2021/05/16 04:06:50;;;;;;;3.08;1.58;;;10.70;1.00;;;;;;4984932;28;20023;-77
2021/05/16 04:09:15;;;;;;;2.90;0.95;;;10.70;1.00;;;;;;4984120;28;20454;-77
2021/05/16 04:11:41;;;;;;;3.17;0.73;;;10.70;1.00;;;;;;4980320;28;20029;-77
2021/05/16 04:14:07;;;;;;;2.72;1.08;;;10.70;1.00;;;;;;4981714;28;20047;-76
2021/05/16 04:16:32;;;;;;;1.27;0.82;;;10.70;1.00;;;;;;4988036;28;20115;-75
2021/05/16 04:18:58;;;;;;;2.30;0.80;;;10.70;1.00;;;;;;4997114;28;20037;-77
2021/05/16 04:21:23;;;;;;;3.92;0.90;;;10.50;1.00;;;;;;4984104;28;20030;-77
2021/05/16 04:23:49;;;;;;;3.83;1.13;;;10.50;1.00;;;;;;4986173;28;20067;-77
2021/05/16 04:26:15;;;;;;;2.30;1.05;;;10.50;1.00;;;;;;4996152;28;20062;-76
2021/05/16 04:28:40;;;;;;;2.40;0.90;;;10.50;1.00;;;;;;4995402;28;20019;-77
2021/05/16 04:31:06;;;;;;;2.50;1.67;;;10.50;1.00;;;;;;5003590;28;20034;-77
2021/05/16 04:33:31;;;;;;;2.00;1.67;;;10.40;1.00;;;;;;4988278;28;20085;-78
2021/05/16 04:35:58;;;;;;;3.33;1.20;;;10.40;1.00;;;;;;4988172;28;20027;-78
2021/05/16 04:38:24;;;;;;;3.42;1.15;;;10.40;1.00;;;;;;4988284;28;20029;-78
2021/05/16 04:40:50;;;;;;;1.38;0.88;;;10.50;1.00;;;;;;4988396;28;20048;-78
2021/05/16 04:43:16;;;;;;;3.47;1.08;;;10.50;1.00;;;;;;4989896;28;20023;-77
2021/05/16 04:45:41;;;;;;;1.13;1.02;;;10.60;1.00;;;;;;4988494;28;20026;-77
2021/05/16 04:48:07;;;;;;;2.70;0.93;;;10.70;1.00;;;;;;4990223;28;20050;-78
2021/05/16 04:50:33;;;;;;;3.50;1.45;;;10.70;1.00;;;;;;4988193;28;20030;-78
2021/05/16 04:52:59;;;;;;;3.20;0.80;;;10.80;1.00;;;;;;4987471;28;20105;-77
2021/05/16 04:55:25;;;;;;;6.95;1.70;;;10.70;1.00;;;;;;4987965;28;20035;-77
2021/05/16 04:57:51;;;;;;;4.65;0.90;;;10.70;1.00;;;;;;4988749;28;20113;-77
2021/05/16 05:00:18;;;;;;;1.40;0.73;;;10.80;1.00;;;;;;4987722;28;20094;-77
2021/05/16 05:02:46;;;;;;;2.92;0.90;;;10.70;1.00;;;;;;4989678;28;20114;-77
2021/05/16 05:05:12;;;;;;;2.10;0.93;;;10.70;1.00;;;;;;4999233;23;20039;-76
2021/05/16 05:07:38;;;;;;;1.63;0.77;;;10.80;1.00;;;;;;4979236;28;20054;-75
2021/05/16 05:10:04;;;;;;;1.38;0.75;;;10.80;1.00;;;;;;4977575;28;20044;-75
2021/05/16 05:12:30;;;;;;;3.22;0.90;;;10.90;1.00;;;;;;4979633;28;20078;-75
2021/05/16 05:14:56;;;;;;;1.30;0.80;;;11.00;1.00;;;;;;4974523;28;20031;-74
2021/05/16 05:17:21;;;;;;;1.17;0.63;;;11.20;1.00;;;;;;4958680;28;20480;-74
2021/05/16 05:19:47;;;;;;;3.80;0.70;;;11.60;1.00;;;;;;4957437;28;20039;-75
2021/05/16 05:22:13;;;;;;;2.33;0.85;;;11.90;1.00;;;;;;4962037;28;20118;-75
2021/05/16 05:24:38;;;;;;;3.17;1.17;;;12.10;1.00;;;;;;4959512;28;20023;-75
2021/05/16 05:27:04;;;;;;;2.17;0.98;;;12.20;1.00;;;;;;4959999;28;20027;-75
2021/05/16 05:29:31;;;;;;;1.55;0.60;;;12.10;1.00;;;;;;4958958;28;20031;-75
2021/05/16 05:31:57;;;;;;;1.05;0.60;;;12.10;1.00;;;;;;4941268;29;20500;-75
2021/05/16 05:34:26;;;;;;;1.42;0.50;;;12.00;1.00;;;;;;4965831;28;20039;-77
2021/05/16 05:36:55;;;;;;;1.00;0.70;;;12.00;1.00;;;;;;4957635;29;20031;-76
2021/05/16 05:39:21;;;;;;;3.60;0.60;;;11.80;1.00;;;;;;4956613;28;20039;-74
2021/05/16 05:41:47;;;;;;;1.58;0.50;;;11.60;1.00;;;;;;4962676;28;20523;-76
2021/05/16 05:44:13;;;;;;;2.10;0.95;;;11.70;1.00;;;;;;4949445;29;20060;-77
2021/05/16 05:46:41;;;;;;;2.70;0.95;;;11.50;1.00;;;;;;4951437;29;20019;-76
2021/05/16 05:49:08;;;;;;;1.52;0.70;;;11.40;1.00;;;;;;4959287;28;20027;-75
2021/05/16 05:51:34;;;;;;;2.45;0.80;;;11.30;1.00;;;;;;4958178;28;20028;-74
2021/05/16 05:54:00;;;;;;;1.35;0.70;;;11.30;1.00;;;;;;4950512;29;20038;-74
2021/05/16 05:56:25;;;;;;;3.30;0.80;;;11.20;1.00;;;;;;4968777;28;20037;-74
2021/05/16 05:58:51;;;;;;;1.40;0.80;;;11.20;1.00;;;;;;4967992;28;20087;-73
2021/05/16 06:01:17;;;;;;;2.55;0.82;;;11.10;1.00;;;;;;4979674;28;20032;-75
2021/05/16 06:03:45;;;;;;;4.55;0.95;;;11.20;1.00;;;;;;4979911;28;20043;-74
2021/05/16 06:06:10;;;;;;;1.50;1.00;;;11.20;1.00;;;;;;4987927;28;20071;-76
2021/05/16 06:08:38;;;;;;;2.50;0.70;;;11.30;1.00;;;;;;4977033;28;20023;-75
2021/05/16 06:11:03;;;;;;;2.17;0.80;;;11.30;1.00;;;;;;4964477;28;20027;-72
2021/05/16 06:13:29;;;;;;;1.05;0.52;;;11.40;1.00;;;;;;4958049;29;20054;-75
2021/05/16 06:15:54;;;;;;;1.50;0.70;;;11.50;1.00;;;;;;4969332;28;20024;-74
2021/05/16 06:18:23;;;;;;;3.88;2.38;;;11.60;1.00;;;;;;4968821;28;20074;-74
2021/05/16 06:20:49;;;;;;;3.53;1.05;;;12.00;1.00;;;;;;4973128;28;20039;-75
2021/05/16 06:23:15;;;;;;;1.63;0.70;;;12.30;1.00;;;;;;4960596;28;20095;-75
2021/05/16 06:25:42;;;;;;;2.83;0.70;;;12.50;1.00;;;;;;4960745;28;20034;-76
2021/05/16 06:28:08;;;;;;;2.15;0.73;;;12.40;1.00;;;;;;4960011;29;20529;-76
2021/05/16 06:30:33;;;;;;;1.08;0.68;;;12.50;1.00;;;;;;4955388;28;20019;-76
2021/05/16 06:32:59;;;;;;;3.05;0.70;;;12.80;1.00;;;;;;4962559;28;20514;-76
2021/05/16 06:35:25;;;;;;;2.40;0.70;;;13.00;1.00;;;;;;4962213;28;20035;-76
2021/05/16 06:37:50;;;;;;;3.15;0.85;;;13.00;1.00;;;;;;4954587;29;20448;-76
2021/05/16 06:40:19;;;;;;;1.23;0.75;;;12.90;1.00;;;;;;4959825;28;20058;-77
2021/05/16 06:42:45;;;;;;;0.73;0.50;;;13.10;1.00;;;;;;4955674;28;20055;-75
2021/05/16 06:45:12;;;;;;;0.77;0.50;;;13.20;1.00;;;;;;4955208;28;20085;-75
2021/05/16 06:47:38;;;;;;;1.50;0.50;;;13.20;1.00;;;;;;4973181;28;20024;-76
2021/05/16 06:50:07;;;;;;;3.28;1.63;;;13.30;99.90;;;;;;4966619;28;20042;-75
2021/05/16 06:52:32;;;;;;;1.08;0.70;;;13.40;99.90;;;;;;4959912;29;20550;-75
2021/05/16 06:54:58;;;;;;;3.33;1.20;;;13.70;99.90;;;;;;4959529;28;20250;-74
2021/05/16 06:57:23;;;;;;;1.33;0.40;;;13.90;99.90;;;;;;4953228;29;20027;-76
2021/05/16 06:59:49;;;;;;;1.77;0.93;;;14.20;99.90;;;;;;4952475;28;20046;-75
2021/05/16 07:02:15;;;;;;;2.15;0.50;;;14.20;99.90;;;;;;4958446;29;20039;-76
2021/05/16 07:04:44;;;;;;;1.30;0.50;;;14.30;99.90;;;;;;4959179;29;20037;-75
2021/05/16 07:07:10;;;;;;;1.83;0.60;;;14.50;99.90;;;;;;4960611;28;20035;-75
2021/05/16 07:09:37;;;;;;;0.80;0.60;;;14.60;99.90;;;;;;4959019;28;20094;-75
2021/05/16 07:12:03;;;;;;;1.25;0.60;;;14.60;99.90;;;;;;4958740;28;20035;-75
2021/05/16 07:14:29;;;;;;;1.48;0.80;;;14.70;99.90;;;;;;4959221;28;20042;-76
2021/05/16 07:16:54;;;;;;;1.95;0.60;;;14.60;99.90;;;;;;4957358;28;20491;-76
2021/05/16 07:19:23;;;;;;;2.35;0.50;;;14.70;99.90;;;;;;4961562;28;20017;-75
2021/05/16 07:21:49;;;;;;;1.95;0.77;;;14.70;99.90;;;;;;4967418;28;20023;-75
2021/05/16 07:24:15;;;;;;;2.90;1.92;;;14.60;99.90;;;;;;4958292;28;20028;-75
2021/05/16 07:26:40;;;;;;;1.85;0.88;;;14.50;99.90;;;;;;4970929;28;20030;-76
2021/05/16 07:29:06;;;;;;;2.05;0.60;;;14.30;99.90;;;;;;4968062;28;20039;-76
2021/05/16 07:31:32;;;;;;;2.25;0.70;;;14.40;99.90;;;;;;4960934;29;20488;-76
2021/05/16 07:33:57;;;;;;;3.53;0.73;;;14.20;99.90;;;;;;4972908;28;20050;-76
2021/05/16 07:36:23;;;;;;;2.90;0.75;;;14.20;99.90;;;;;;4955264;28;20031;-75
2021/05/16 07:38:48;;;;;;;2.60;0.70;;;14.20;99.90;;;;;;4952691;28;20086;-77
2021/05/16 07:41:14;;;;;;;1.52;0.50;;;14.10;99.90;;;;;;4959674;28;20023;-76
2021/05/16 07:43:41;;;;;;;1.85;1.15;;;14.10;99.90;;;;;;4949646;28;20031;-74
2021/05/16 07:46:07;;;;;;;1.73;0.73;;;14.20;99.90;;;;;;4964130;28;20036;-76
2021/05/16 07:48:33;;;;;;;2.83;0.70;;;14.30;99.90;;;;;;4969112;28;20518;-74
2021/05/16 07:51:00;;;;;;;0.98;0.47;;;14.40;99.90;;;;;;4977157;28;20027;-76
2021/05/16 07:53:27;;;;;;;2.47;0.90;;;14.40;99.90;;;;;;4959828;29;20055;-76
2021/05/16 07:55:53;;;;;;;1.25;0.60;;;14.50;99.90;;;;;;4956384;28;20035;-76
2021/05/16 07:58:19;;;;;;;1.83;0.80;;;14.80;99.90;;;;;;4962854;28;20035;-75
2021/05/16 08:00:44;;;;;;;1.58;0.60;;;15.40;99.90;;;;;;4973042;28;20028;-76
2021/05/16 08:03:10;;;;;;;0.90;0.63;;;16.00;84.20;;;;;;4954370;29;20031;-75
2021/05/16 08:05:36;;;;;;;2.40;0.80;;;16.10;1.00;;;;;;4958594;28;20522;-77
2021/05/16 08:08:02;;;;;;;6.57;0.80;;;16.00;1.00;;;;;;4959690;28;20039;-75
2021/05/16 08:10:27;;;;;;;1.33;0.73;;;15.70;1.00;;;;;;4961105;28;20028;-74
2021/05/16 08:12:53;;;;;;;2.40;0.68;;;15.30;99.90;;;;;;4960741;28;20027;-76
2021/05/16 08:15:19;;;;;;;3.25;1.25;;;14.90;99.90;;;;;;4957413;28;20046;-76
2021/05/16 08:17:45;;;;;;;3.80;1.02;;;14.60;99.90;;;;;;4957011;28;20023;-76
2021/05/16 08:20:11;;;;;;;1.23;0.82;;;14.60;99.90;;;;;;4961712;29;20036;-76
2021/05/16 08:22:38;;;;;;;1.50;0.40;;;14.40;99.90;;;;;;4961731;28;20027;-76
2021/05/16 08:25:07;;;;;;;1.40;0.60;;;14.40;99.90;;;;;;4976761;28;20031;-75
2021/05/16 08:27:32;;;;;;;3.17;0.70;;;14.40;99.90;;;;;;4960089;28;20039;-75
2021/05/16 08:29:58;;;;;;;1.70;0.47;;;14.40;99.90;;;;;;4970598;28;20086;-75
2021/05/16 08:32:23;;;;;;;1.77;0.45;;;14.60;99.90;;;;;;4978168;28;20027;-75
2021/05/16 08:34:49;;;;;;;2.85;0.63;;;14.60;99.90;;;;;;4960094;29;20069;-76
2021/05/16 08:37:16;;;;;;;2.92;0.95;;;14.70;99.90;;;;;;4969192;28;20038;-75
2021/05/16 08:39:42;;;;;;;2.72;1.08;;;14.60;99.90;;;;;;4970751;28;20326;-75
2021/05/16 08:42:09;;;;;;;3.13;1.00;;;14.80;99.90;;;;;;4971141;28;20042;-75
2021/05/16 08:44:35;;;;;;;2.85;0.70;;;15.00;99.90;;;;;;4964447;28;20022;-74
2021/05/16 08:47:02;;;;;;;1.27;0.40;;;15.10;99.90;;;;;;4963572;28;20027;-74
2021/05/16 08:49:28;;;;;;;1.65;0.80;;;15.10;99.90;;;;;;4964291;28;20534;-75
2021/05/16 08:51:54;;;;;;;1.50;0.50;;;15.50;99.90;;;;;;4978535;28;20051;-75
2021/05/16 08:54:22;;;;;;;2.63;0.80;;;15.60;99.90;;;;;;4978946;28;20019;-71
2021/05/16 08:56:52;;;;;;;1.88;1.00;;;15.60;99.90;;;;;;4959301;28;20023;-72
2021/05/16 08:59:20;;;;;;;3.07;0.90;;;15.80;99.90;;;;;;4958028;29;20024;-74
2021/05/16 09:01:53;;;;;;;4.63;1.15;;;16.10;67.40;;;;;;4963506;28;20027;-73
2021/05/16 09:04:20;;;;;;;4.93;1.00;;;16.30;73.20;;;;;;4967100;29;20027;-72
2021/05/16 09:06:46;;;;;;;2.90;0.82;;;16.50;1.00;;;;;;4970372;28;20024;-72
2021/05/16 09:09:33;;;;;;;1.45;0.70;;;16.60;1.00;;;;;;4986573;28;20031;-72
2021/05/16 09:12:01;;;;;;;0.90;0.55;;;16.40;1.00;;;;;;4984214;28;20031;-72
2021/05/16 09:14:48;;;;;;;3.03;1.00;;;16.60;1.00;;;;;;4969655;28;20034;-72
2021/05/16 09:17:34;;;;;;;6.07;1.27;;;16.60;99.90;;;;;;4970366;28;20051;-72
2021/05/16 09:20:07;;;;;;;1.88;0.90;;;16.40;99.90;;;;;;4958167;28;20038;-72
2021/05/16 09:22:36;;;;;;;2.70;0.90;;;16.60;99.90;;;;;;4959106;28;20019;-72
2021/05/16 09:25:07;;;;;;;2.05;0.68;;;16.50;99.90;;;;;;4958575;28;20553;-71
2021/05/16 09:27:35;;;;;;;3.28;0.95;;;16.80;99.90;;;;;;4973964;28;20023;-72
2021/05/16 09:30:02;;;;;;;4.35;0.80;;;16.90;99.90;;;;;;4974616;28;20031;-72
2021/05/16 09:32:28;;;;;;;2.92;1.15;;;17.30;1.00;;;;;;4944904;28;20089;-72
2021/05/16 09:34:54;;;;;;;2.60;1.77;;;17.70;99.90;;;;;;4959704;28;20547;-72
2021/05/16 09:37:21;;;;;;;4.65;1.50;;;17.70;1.00;;;;;;4958371;28;20067;-72
2021/05/16 09:39:46;;;;;;;2.50;0.60;;;17.60;15.60;;;;;;4958444;28;20110;-72
2021/05/16 09:42:14;;;;;;;2.33;0.80;;;17.60;49.00;;;;;;4969233;28;20024;-71
2021/05/16 09:44:41;;;;;;;2.05;0.73;;;17.50;99.90;;;;;;4976308;29;20047;-72
2021/05/16 09:47:27;;;;;;;3.38;0.88;;;17.80;99.90;;;;;;4977385;28;20008;-71
2021/05/16 09:49:53;;;;;;;3.42;0.70;;;17.90;44.00;;;;;;4978005;28;20047;-71
2021/05/16 09:52:24;;;;;;;3.45;0.77;;;17.60;99.90;;;;;;4968358;28;20035;-72
2021/05/16 09:54:57;;;;;;;2.90;0.85;;;17.60;23.00;;;;;;4966447;28;20034;-72
2021/05/16 09:57:31;;;;;;;4.03;1.15;;;17.60;1.00;;;;;;4961417;29;20057;-72
2021/05/16 09:59:57;;;;;;;1.75;0.80;;;18.00;99.90;;;;;;4962359;28;20077;-73
2021/05/16 10:02:26;;;;;;;3.17;1.10;;;18.40;99.90;;;;;;4977235;28;20015;-72
2021/05/16 10:04:53;;;;;;;3.08;1.00;;;18.50;99.90;;;;;;4957171;28;20019;-73
2021/05/16 10:07:23;;;;;;;4.32;1.00;;;18.40;86.70;;;;;;4974420;29;20027;-72
2021/05/16 10:09:51;;;;;;;1.52;1.08;;;18.20;6.10;;;;;;4972949;28;20062;-73
2021/05/16 10:12:18;;;;;;;2.03;0.93;;;17.90;1.00;;;;;;4974436;28;20050;-72
2021/05/16 10:14:49;;;;;;;3.50;0.90;;;17.70;15.90;;;;;;4968911;28;20027;-72
2021/05/16 10:17:16;;;;;;;3.63;1.75;;;18.30;1.00;;;;;;4970302;28;20032;-73
2021/05/16 10:19:44;;;;;;;2.55;0.77;;;18.10;1.00;;;;;;4965206;29;20041;-72
2021/05/16 10:22:16;;;;;;;3.22;0.93;;;18.30;1.00;;;;;;4967399;28;20095;-74
2021/05/16 10:24:46;;;;;;;2.65;1.17;;;18.40;1.00;;;;;;4975343;28;20085;-72
2021/05/16 10:27:18;;;;;;;7.30;1.73;;;18.60;99.90;;;;;;4983033;28;20023;-73
2021/05/16 10:29:58;;;;;;;2.08;0.68;;;18.80;99.90;;;;;;4970414;28;20026;-73
2021/05/16 10:32:26;;;;;;;3.40;0.83;;;19.00;99.90;;;;;;4983705;28;20312;-72
2021/05/16 10:35:11;;;;;;;5.30;0.90;;;19.10;99.90;;;;;;4963011;28;20019;-72
2021/05/16 10:37:51;;;;;;;3.60;0.88;;;19.40;99.90;;;;;;4961043;28;20047;-73
2021/05/16 10:40:23;;;;;;;4.33;0.80;;;18.90;99.90;;;;;;4962887;28;20115;-74
2021/05/16 10:42:56;;;;;;;2.08;0.85;;;18.90;99.90;;;;;;4960818;28;20432;-71
2021/05/16 10:45:30;;;;;;;2.20;0.68;;;18.90;99.90;;;;;;4960074;28;20023;-72
2021/05/16 10:48:03;;;;;;;3.70;1.10;;;18.80;99.90;;;;;;4962105;29;20023;-73
2021/05/16 10:50:51;;;;;;;1.60;0.73;;;18.80;99.90;;;;;;4976641;28;20035;-75
2021/05/16 10:53:23;;;;;;;2.00;0.70;;;19.30;99.90;;;;;;4959932;28;20051;-74
2021/05/16 10:56:10;;;;;;;3.95;1.23;;;19.00;99.90;;;;;;4963395;28;20027;-73
2021/05/16 10:58:41;;;;;;;4.95;1.08;;;18.70;99.90;;;;;;4957956;29;20031;-72
2021/05/16 11:01:08;;;;;;;;;;;18.50;99.90;;;;;;4959393;28;20032;-73
2021/05/16 11:03:46;;;;;;;3.67;0.70;;;18.50;99.90;;;;;;4957231;28;19906;-73
2021/05/16 11:06:17;;;;;;;1.15;0.60;;;18.80;99.90;;;;;;4980642;23;20075;-72
2021/05/16 11:08:42;;;;;;;4.65;1.00;;;19.30;99.90;;;;;;4975447;28;20485;-72
2021/05/16 11:11:33;;;;;;;3.90;0.90;;;19.20;99.90;;;;;;4975534;28;20038;-72
2021/05/16 11:13:59;;;;;;;2.83;1.83;;;19.40;99.90;;;;;;4987418;28;20027;-71
2021/05/16 11:16:25;;;;;;;3.00;0.80;;;19.70;99.90;;;;;;4973347;28;20081;-72
2021/05/16 11:18:52;;;;;;;3.33;0.95;;;19.90;99.90;;;;;;4988487;28;22069;-69
2021/05/16 11:21:17;;;;;;;2.33;0.93;;;20.00;99.90;;;;;;4974027;28;20039;-70
2021/05/16 11:23:47;;;;;;;5.07;0.65;;;19.50;99.90;;;;;;4973962;28;20046;-69
2021/05/16 11:26:14;;;;;;;2.15;0.77;;;19.20;99.90;;;;;;4970771;28;20394;-72
2021/05/16 11:28:49;;;;;;;3.08;0.80;;;19.40;99.90;;;;;;4975364;28;20035;-72
2021/05/16 11:31:20;;;;;;;2.05;0.90;;;19.50;99.90;;;;;;4981241;28;20030;-73
2021/05/16 11:33:51;;;;;;;2.88;0.90;;;19.90;99.90;;;;;;4985865;28;20081;-73
2021/05/16 11:36:25;;;;;;;2.63;0.65;;;19.80;99.90;;;;;;4990991;28;20062;-74
2021/05/16 11:38:54;;;;;;;3.83;0.60;;;19.90;99.90;;;;;;4975723;28;20468;-74
2021/05/16 11:41:37;;;;;;;3.70;1.13;;;19.70;99.90;;;;;;4975506;28;20113;-75
2021/05/16 11:44:08;;;;;;;2.55;0.70;;;19.10;99.90;;;;;;4976022;28;20078;-74
2021/05/16 11:46:40;;;;;;;2.03;0.60;;;19.20;99.90;;;;;;4974453;28;20027;-73
2021/05/16 11:49:06;;;;;;;2.85;0.98;;;19.30;99.90;;;;;;4974333;28;20081;-74
2021/05/16 11:51:34;;;;;;;2.60;0.90;;;19.70;99.90;;;;;;4973772;28;20518;-73
2021/05/16 11:54:10;;;;;;;3.35;1.00;;;19.30;99.90;;;;;;4975174;28;20066;-75
2021/05/16 11:56:41;;;;;;;2.50;0.70;;;19.30;99.90;;;;;;4981785;28;20023;-74
2021/05/16 11:59:07;;;;;;;3.28;0.88;;;19.00;99.90;;;;;;4982314;28;20022;-74
2021/05/16 12:01:38;;;;;;;4.47;1.15;;;18.70;99.90;;;;;;4986312;28;20035;-75
2021/05/16 12:04:12;;;;;;;3.40;0.80;;;18.60;99.90;;;;;;4986927;28;20023;-73
2021/05/16 12:06:44;;;;;;;6.22;1.08;;;18.70;99.90;;;;;;4986930;28;20065;-74
2021/05/16 12:09:14;;;;;;;2.38;0.70;;;19.60;99.90;;;;;;4983859;28;20027;-74
2021/05/16 12:11:41;;;;;;;4.22;0.93;;;20.00;99.90;;;;;;4975692;28;20019;-75
2021/05/16 12:14:12;;;;;;;1.17;0.57;;;20.20;99.90;;;;;;4975822;28;20427;-73
2021/05/16 12:16:39;;;;;;;2.22;0.63;;;20.00;99.90;;;;;;4977416;28;20027;-74
2021/05/16 12:19:06;;;;;;;3.55;0.75;;;19.60;99.90;;;;;;4978761;28;20038;-74
2021/05/16 12:21:35;;;;;;;2.08;0.60;;;18.80;99.90;;;;;;4978252;28;20475;-73
2021/05/16 12:24:09;;;;;;;2.95;0.80;;;18.50;99.90;;;;;;4977635;28;20083;-73
2021/05/16 12:26:38;;;;;;;2.05;0.52;;;18.60;99.90;;;;;;4978651;28;20027;-75
2021/05/16 12:29:05;;;;;;;2.45;0.75;;;18.60;99.90;;;;;;4978384;28;20030;-75
2021/05/16 12:31:31;;;;;;;2.30;0.70;;;18.70;99.90;;;;;;4978296;28;20039;-74
2021/05/16 12:34:05;;;;;;;2.25;0.60;;;18.90;99.90;;;;;;4978540;28;20113;-74
2021/05/16 12:36:57;;;;;;;4.63;0.60;;;19.10;99.90;;;;;;4979591;28;20058;-73
2021/05/16 12:39:48;;;;;;;1.33;0.52;;;19.10;99.90;;;;;;4993492;28;20018;-74
2021/05/16 12:42:34;;;;;;;2.95;0.60;;;18.90;99.90;;;;;;4983312;28;20033;-74
2021/05/16 12:45:33;;;;;;;3.63;0.65;;;18.80;99.90;;;;;;4983474;28;20026;-73
2021/05/16 12:48:00;;;;;;;3.17;0.80;;;18.80;99.90;;;;;;4982497;28;20038;-74
2021/05/16 12:50:31;;;;;;;1.50;0.60;;;18.90;99.90;;;;;;4989228;28;20031;-73
2021/05/16 12:56:10;;;;;;;1.85;0.65;;;18.90;99.90;;;;;;4982920;28;20038;-74
2021/05/16 12:58:52;;;;;;;3.85;1.10;;;19.00;99.90;;;;;;4980703;28;20109;-74